sensor_id;sensor_type;location;lat;lon;timestamp;P1;P2;P0
73246;PMS5003;61460;41.158;-73.238;2023-02-20T00:00:40;0;0;
73246;PMS5003;61460;41.158;-73.238;2023-02-20T00:03:12;1;1;
73246;PMS5003;61460;41.158;-73.238;2023-02-20T00:05:41;0;0;
73246;PMS5003;61460;41.158;-73.238;2023-02-20T00:08:12;0;0;
73246;PMS5003;61460;41.158;-73.238;2023-02-20T00:10:43;1;1;
73246;PMS5003;61460;41.158;-73.238;2023-02-20T00:13:13;1;1;
73246;PMS5003;61460;41.158;-73.238;2023-02-20T00:15:44;6;5;
73246;PMS5003;61460;41.158;-73.238;2023-02-20T00:18:15;10;7;
73246;PMS5003;61460;41.158;-73.238;2023-02-20T00:20:45;24;15;
73246;PMS5003;61460;41.158;-73.238;2023-02-20T00:23:16;22;20;
73246;PMS5003;61460;41.158;-73.238;2023-02-20T00:25:46;30;23;
73246;PMS5003;61460;41.158;-73.238;2023-02-20T00:28:16;44;33;
73246;PMS5003;61460;41.158;-73.238;2023-02-20T00:30:46;61;42;
73246;PMS5003;61460;41.158;-73.238;2023-02-20T00:33:17;150;112;
73246;PMS5003;61460;41.158;-73.238;2023-02-20T00:35:48;164;121;
73246;PMS5003;61460;41.158;-73.238;2023-02-20T00:38:19;149;116;
73246;PMS5003;61460;41.158;-73.238;2023-02-20T00:40:49;166;123;
73246;PMS5003;61460;41.158;-73.238;2023-02-20T00:43:20;167;125;
73246;PMS5003;61460;41.158;-73.238;2023-02-20T00:45:51;161;117;
73246;PMS5003;61460;41.158;-73.238;2023-02-20T00:48:21;170;123;
73246;PMS5003;61460;41.158;-73.238;2023-02-20T00:50:53;151;108;
73246;PMS5003;61460;41.158;-73.238;2023-02-20T00:53:23;128;103;
73246;PMS5003;61460;41.158;-73.238;2023-02-20T00:55:53;114;87;
73246;PMS5003;61460;41.158;-73.238;2023-02-20T00:58:23;125;101;
73246;PMS5003;61460;41.158;-73.238;2023-02-20T01:00:54;105;87;
73246;PMS5003;61460;41.158;-73.238;2023-02-20T01:03:24;116;83;
73246;PMS5003;61460;41.158;-73.238;2023-02-20T01:05:55;99;72;
73246;PMS5003;61460;41.158;-73.238;2023-02-20T01:08:25;74;59;
73246;PMS5003;61460;41.158;-73.238;2023-02-20T01:10:55;67;56;
73246;PMS5003;61460;41.158;-73.238;2023-02-20T01:13:25;76;60;
73246;PMS5003;61460;41.158;-73.238;2023-02-20T01:15:56;76;64;
73246;PMS5003;61460;41.158;-73.238;2023-02-20T01:18:26;70;53;
73246;PMS5003;61460;41.158;-73.238;2023-02-20T01:21:00;71;51;
73246;PMS5003;61460;41.158;-73.238;2023-02-20T01:23:27;62;51;
73246;PMS5003;61460;41.158;-73.238;2023-02-20T01:25:58;63;50;
73246;PMS5003;61460;41.158;-73.238;2023-02-20T01:28:28;39;36;
73246;PMS5003;61460;41.158;-73.238;2023-02-20T01:30:58;42;35;
73246;PMS5003;61460;41.158;-73.238;2023-02-20T01:33:28;48;36;
73246;PMS5003;61460;41.158;-73.238;2023-02-20T01:35:59;47;34;
73246;PMS5003;61460;41.158;-73.238;2023-02-20T01:38:29;46;37;
73246;PMS5003;61460;41.158;-73.238;2023-02-20T01:41:00;44;34;
73246;PMS5003;61460;41.158;-73.238;2023-02-20T01:43:31;46;35;
73246;PMS5003;61460;41.158;-73.238;2023-02-20T01:48:32;42;30;
73246;PMS5003;61460;41.158;-73.238;2023-02-20T01:51:02;36;28;
73246;PMS5003;61460;41.158;-73.238;2023-02-20T01:53:32;41;29;
73246;PMS5003;61460;41.158;-73.238;2023-02-20T01:56:03;32;26;
73246;PMS5003;61460;41.158;-73.238;2023-02-20T01:58:34;35;26;
73246;PMS5003;61460;41.158;-73.238;2023-02-20T02:01:04;40;26;
73246;PMS5003;61460;41.158;-73.238;2023-02-20T02:03:34;42;29;
73246;PMS5003;61460;41.158;-73.238;2023-02-20T02:06:05;34;29;
73246;PMS5003;61460;41.158;-73.238;2023-02-20T02:08:35;27;23;
73246;PMS5003;61460;41.158;-73.238;2023-02-20T02:11:07;25;20;
73246;PMS5003;61460;41.158;-73.238;2023-02-20T02:13:37;22;20;
73246;PMS5003;61460;41.158;-73.238;2023-02-20T02:16:13;27;21;
73246;PMS5003;61460;41.158;-73.238;2023-02-20T02:18:40;17;17;
73246;PMS5003;61460;41.158;-73.238;2023-02-20T02:21:13;23;19;
73246;PMS5003;61460;41.158;-73.238;2023-02-20T02:26:11;23;21;
73246;PMS5003;61460;41.158;-73.238;2023-02-20T02:28:45;20;17;
73246;PMS5003;61460;41.158;-73.238;2023-02-20T02:33:44;19;17;
73246;PMS5003;61460;41.158;-73.238;2023-02-20T02:38:40;15;15;
73246;PMS5003;61460;41.158;-73.238;2023-02-20T02:41:12;14;13;
73246;PMS5003;61460;41.158;-73.238;2023-02-20T02:43:41;14;11;
73246;PMS5003;61460;41.158;-73.238;2023-02-20T02:46:12;12;10;
73246;PMS5003;61460;41.158;-73.238;2023-02-20T02:48:43;13;10;
73246;PMS5003;61460;41.158;-73.238;2023-02-20T02:51:12;22;14;
73246;PMS5003;61460;41.158;-73.238;2023-02-20T02:56:13;12;11;
73246;PMS5003;61460;41.158;-73.238;2023-02-20T02:58:43;20;12;
73246;PMS5003;61460;41.158;-73.238;2023-02-20T03:01:14;14;12;
73246;PMS5003;61460;41.158;-73.238;2023-02-20T03:03:45;15;11;
73246;PMS5003;61460;41.158;-73.238;2023-02-20T03:06:16;12;11;
73246;PMS5003;61460;41.158;-73.238;2023-02-20T03:08:48;14;10;
73246;PMS5003;61460;41.158;-73.238;2023-02-20T03:11:17;8;8;
73246;PMS5003;61460;41.158;-73.238;2023-02-20T03:13:48;9;8;
73246;PMS5003;61460;41.158;-73.238;2023-02-20T03:16:20;12;9;
73246;PMS5003;61460;41.158;-73.238;2023-02-20T03:18:49;9;7;
73246;PMS5003;61460;41.158;-73.238;2023-02-20T03:21:21;9;7;
73246;PMS5003;61460;41.158;-73.238;2023-02-20T03:23:51;9;8;
73246;PMS5003;61460;41.158;-73.238;2023-02-20T03:26:21;10;10;
73246;PMS5003;61460;41.158;-73.238;2023-02-20T03:28:52;9;8;
73246;PMS5003;61460;41.158;-73.238;2023-02-20T03:31:24;8;8;
73246;PMS5003;61460;41.158;-73.238;2023-02-20T03:33:54;7;7;
73246;PMS5003;61460;41.158;-73.238;2023-02-20T03:36:24;7;7;
73246;PMS5003;61460;41.158;-73.238;2023-02-20T03:38:55;8;8;
73246;PMS5003;61460;41.158;-73.238;2023-02-20T03:41:24;7;7;
73246;PMS5003;61460;41.158;-73.238;2023-02-20T03:43:54;9;8;
73246;PMS5003;61460;41.158;-73.238;2023-02-20T03:46:25;9;9;
73246;PMS5003;61460;41.158;-73.238;2023-02-20T03:48:57;8;8;
73246;PMS5003;61460;41.158;-73.238;2023-02-20T03:51:26;5;5;
73246;PMS5003;61460;41.158;-73.238;2023-02-20T03:53:57;6;6;
73246;PMS5003;61460;41.158;-73.238;2023-02-20T03:56:32;9;7;
73246;PMS5003;61460;41.158;-73.238;2023-02-20T03:59:00;6;6;
73246;PMS5003;61460;41.158;-73.238;2023-02-20T04:01:29;6;5;
73246;PMS5003;61460;41.158;-73.238;2023-02-20T04:04:00;9;7;
73246;PMS5003;61460;41.158;-73.238;2023-02-20T04:06:31;7;7;
73246;PMS5003;61460;41.158;-73.238;2023-02-20T04:09:02;12;5;
73246;PMS5003;61460;41.158;-73.238;2023-02-20T04:11:33;6;5;
73246;PMS5003;61460;41.158;-73.238;2023-02-20T04:14:02;8;6;
73246;PMS5003;61460;41.158;-73.238;2023-02-20T04:16:34;7;7;
73246;PMS5003;61460;41.158;-73.238;2023-02-20T04:19:03;7;6;
73246;PMS5003;61460;41.158;-73.238;2023-02-20T04:21:35;7;7;
73246;PMS5003;61460;41.158;-73.238;2023-02-20T04:24:06;6;6;
73246;PMS5003;61460;41.158;-73.238;2023-02-20T04:26:36;7;7;
73246;PMS5003;61460;41.158;-73.238;2023-02-20T04:29:06;8;8;
73246;PMS5003;61460;41.158;-73.238;2023-02-20T04:31:38;8;8;
73246;PMS5003;61460;41.158;-73.238;2023-02-20T04:34:07;8;7;
73246;PMS5003;61460;41.158;-73.238;2023-02-20T04:36:38;7;7;
73246;PMS5003;61460;41.158;-73.238;2023-02-20T04:39:09;6;6;
73246;PMS5003;61460;41.158;-73.238;2023-02-20T04:41:39;5;5;
73246;PMS5003;61460;41.158;-73.238;2023-02-20T04:44:10;7;7;
73246;PMS5003;61460;41.158;-73.238;2023-02-20T04:46:41;8;7;
73246;PMS5003;61460;41.158;-73.238;2023-02-20T04:49:11;7;6;
73246;PMS5003;61460;41.158;-73.238;2023-02-20T04:51:42;5;5;
73246;PMS5003;61460;41.158;-73.238;2023-02-20T04:54:13;8;7;
73246;PMS5003;61460;41.158;-73.238;2023-02-20T04:56:45;7;7;
73246;PMS5003;61460;41.158;-73.238;2023-02-20T04:59:14;8;8;
73246;PMS5003;61460;41.158;-73.238;2023-02-20T05:01:45;8;8;
73246;PMS5003;61460;41.158;-73.238;2023-02-20T05:04:17;7;7;
73246;PMS5003;61460;41.158;-73.238;2023-02-20T05:06:48;11;9;
73246;PMS5003;61460;41.158;-73.238;2023-02-20T05:09:17;8;7;
73246;PMS5003;61460;41.158;-73.238;2023-02-20T05:11:47;8;8;
73246;PMS5003;61460;41.158;-73.238;2023-02-20T05:14:18;8;8;
73246;PMS5003;61460;41.158;-73.238;2023-02-20T05:16:49;8;7;
73246;PMS5003;61460;41.158;-73.238;2023-02-20T05:19:19;6;6;
73246;PMS5003;61460;41.158;-73.238;2023-02-20T05:21:50;9;8;
73246;PMS5003;61460;41.158;-73.238;2023-02-20T05:24:20;8;7;
73246;PMS5003;61460;41.158;-73.238;2023-02-20T05:26:52;7;7;
73246;PMS5003;61460;41.158;-73.238;2023-02-20T05:29:22;9;8;
73246;PMS5003;61460;41.158;-73.238;2023-02-20T05:31:52;10;10;
73246;PMS5003;61460;41.158;-73.238;2023-02-20T05:34:23;9;9;
73246;PMS5003;61460;41.158;-73.238;2023-02-20T05:36:54;8;8;
73246;PMS5003;61460;41.158;-73.238;2023-02-20T05:39:24;9;7;
73246;PMS5003;61460;41.158;-73.238;2023-02-20T05:41:55;7;7;
73246;PMS5003;61460;41.158;-73.238;2023-02-20T05:44:26;6;6;
73246;PMS5003;61460;41.158;-73.238;2023-02-20T05:46:57;8;8;
73246;PMS5003;61460;41.158;-73.238;2023-02-20T05:49:27;10;9;
73246;PMS5003;61460;41.158;-73.238;2023-02-20T05:51:58;8;8;
73246;PMS5003;61460;41.158;-73.238;2023-02-20T05:54:28;9;8;
73246;PMS5003;61460;41.158;-73.238;2023-02-20T05:56:59;10;10;
73246;PMS5003;61460;41.158;-73.238;2023-02-20T05:59:30;10;9;
73246;PMS5003;61460;41.158;-73.238;2023-02-20T06:02:00;10;9;
73246;PMS5003;61460;41.158;-73.238;2023-02-20T06:04:31;9;8;
73246;PMS5003;61460;41.158;-73.238;2023-02-20T06:07:02;9;8;
73246;PMS5003;61460;41.158;-73.238;2023-02-20T06:09:32;10;10;
73246;PMS5003;61460;41.158;-73.238;2023-02-20T06:12:04;8;8;
73246;PMS5003;61460;41.158;-73.238;2023-02-20T06:14:34;10;9;
73246;PMS5003;61460;41.158;-73.238;2023-02-20T06:17:04;10;9;
73246;PMS5003;61460;41.158;-73.238;2023-02-20T06:19:35;11;10;
73246;PMS5003;61460;41.158;-73.238;2023-02-20T06:22:06;10;10;
73246;PMS5003;61460;41.158;-73.238;2023-02-20T06:24:37;12;11;
73246;PMS5003;61460;41.158;-73.238;2023-02-20T06:27:07;11;10;
73246;PMS5003;61460;41.158;-73.238;2023-02-20T06:29:38;11;10;
73246;PMS5003;61460;41.158;-73.238;2023-02-20T06:32:08;10;9;
73246;PMS5003;61460;41.158;-73.238;2023-02-20T06:34:39;9;9;
73246;PMS5003;61460;41.158;-73.238;2023-02-20T06:37:10;9;9;
73246;PMS5003;61460;41.158;-73.238;2023-02-20T06:39:41;12;12;
73246;PMS5003;61460;41.158;-73.238;2023-02-20T06:42:11;10;10;
73246;PMS5003;61460;41.158;-73.238;2023-02-20T06:44:42;9;9;
73246;PMS5003;61460;41.158;-73.238;2023-02-20T06:47:12;13;13;
73246;PMS5003;61460;41.158;-73.238;2023-02-20T06:49:43;17;16;
73246;PMS5003;61460;41.158;-73.238;2023-02-20T06:52:14;13;13;
73246;PMS5003;61460;41.158;-73.238;2023-02-20T06:54:44;10;10;
73246;PMS5003;61460;41.158;-73.238;2023-02-20T06:57:15;12;11;
73246;PMS5003;61460;41.158;-73.238;2023-02-20T06:59:46;12;12;
73246;PMS5003;61460;41.158;-73.238;2023-02-20T07:02:16;13;13;
73246;PMS5003;61460;41.158;-73.238;2023-02-20T07:04:48;10;10;
73246;PMS5003;61460;41.158;-73.238;2023-02-20T07:07:18;14;11;
73246;PMS5003;61460;41.158;-73.238;2023-02-20T07:09:49;17;15;
73246;PMS5003;61460;41.158;-73.238;2023-02-20T07:12:19;15;14;
73246;PMS5003;61460;41.158;-73.238;2023-02-20T07:14:50;14;12;
73246;PMS5003;61460;41.158;-73.238;2023-02-20T07:17:20;14;14;
73246;PMS5003;61460;41.158;-73.238;2023-02-20T07:19:51;14;13;
73246;PMS5003;61460;41.158;-73.238;2023-02-20T07:22:22;11;11;
73246;PMS5003;61460;41.158;-73.238;2023-02-20T07:24:53;12;12;
73246;PMS5003;61460;41.158;-73.238;2023-02-20T07:27:23;17;15;
73246;PMS5003;61460;41.158;-73.238;2023-02-20T07:29:54;16;15;
73246;PMS5003;61460;41.158;-73.238;2023-02-20T07:32:24;16;16;
73246;PMS5003;61460;41.158;-73.238;2023-02-20T07:34:55;14;13;
73246;PMS5003;61460;41.158;-73.238;2023-02-20T07:37:26;14;14;
73246;PMS5003;61460;41.158;-73.238;2023-02-20T07:39:57;17;16;
73246;PMS5003;61460;41.158;-73.238;2023-02-20T07:42:28;14;13;
73246;PMS5003;61460;41.158;-73.238;2023-02-20T07:44:58;14;14;
73246;PMS5003;61460;41.158;-73.238;2023-02-20T07:47:29;16;16;
73246;PMS5003;61460;41.158;-73.238;2023-02-20T07:50:00;15;15;
73246;PMS5003;61460;41.158;-73.238;2023-02-20T07:52:30;24;19;
73246;PMS5003;61460;41.158;-73.238;2023-02-20T07:55:00;17;16;
73246;PMS5003;61460;41.158;-73.238;2023-02-20T07:57:31;16;16;
73246;PMS5003;61460;41.158;-73.238;2023-02-20T08:00:02;15;15;
73246;PMS5003;61460;41.158;-73.238;2023-02-20T08:02:32;13;13;
73246;PMS5003;61460;41.158;-73.238;2023-02-20T08:05:03;15;15;
73246;PMS5003;61460;41.158;-73.238;2023-02-20T08:07:34;17;16;
73246;PMS5003;61460;41.158;-73.238;2023-02-20T08:10:05;14;14;
73246;PMS5003;61460;41.158;-73.238;2023-02-20T08:12:35;18;17;
73246;PMS5003;61460;41.158;-73.238;2023-02-20T08:15:06;18;18;
73246;PMS5003;61460;41.158;-73.238;2023-02-20T08:17:36;20;19;
73246;PMS5003;61460;41.158;-73.238;2023-02-20T08:20:07;18;17;
73246;PMS5003;61460;41.158;-73.238;2023-02-20T08:22:38;17;17;
73246;PMS5003;61460;41.158;-73.238;2023-02-20T08:25:08;18;17;
73246;PMS5003;61460;41.158;-73.238;2023-02-20T08:27:41;17;17;
73246;PMS5003;61460;41.158;-73.238;2023-02-20T08:30:10;19;18;
73246;PMS5003;61460;41.158;-73.238;2023-02-20T08:32:40;20;20;
73246;PMS5003;61460;41.158;-73.238;2023-02-20T08:35:11;21;20;
73246;PMS5003;61460;41.158;-73.238;2023-02-20T08:37:41;20;19;
73246;PMS5003;61460;41.158;-73.238;2023-02-20T08:40:12;18;18;
73246;PMS5003;61460;41.158;-73.238;2023-02-20T08:42:43;18;18;
73246;PMS5003;61460;41.158;-73.238;2023-02-20T08:45:13;16;16;
73246;PMS5003;61460;41.158;-73.238;2023-02-20T08:47:44;16;16;
73246;PMS5003;61460;41.158;-73.238;2023-02-20T08:50:15;19;19;
73246;PMS5003;61460;41.158;-73.238;2023-02-20T08:52:45;21;20;
73246;PMS5003;61460;41.158;-73.238;2023-02-20T08:55:16;30;22;
73246;PMS5003;61460;41.158;-73.238;2023-02-20T08:57:46;22;21;
73246;PMS5003;61460;41.158;-73.238;2023-02-20T09:00:17;19;19;
73246;PMS5003;61460;41.158;-73.238;2023-02-20T09:02:48;19;18;
73246;PMS5003;61460;41.158;-73.238;2023-02-20T09:05:18;18;18;
73246;PMS5003;61460;41.158;-73.238;2023-02-20T09:07:49;17;17;
73246;PMS5003;61460;41.158;-73.238;2023-02-20T09:10:20;21;21;
73246;PMS5003;61460;41.158;-73.238;2023-02-20T09:12:50;26;21;
73246;PMS5003;61460;41.158;-73.238;2023-02-20T09:15:20;21;21;
73246;PMS5003;61460;41.158;-73.238;2023-02-20T09:17:51;23;22;
73246;PMS5003;61460;41.158;-73.238;2023-02-20T09:20:22;19;19;
73246;PMS5003;61460;41.158;-73.238;2023-02-20T09:22:53;20;19;
73246;PMS5003;61460;41.158;-73.238;2023-02-20T09:25:24;27;20;
73246;PMS5003;61460;41.158;-73.238;2023-02-20T09:27:53;19;18;
73246;PMS5003;61460;41.158;-73.238;2023-02-20T09:30:24;21;20;
73246;PMS5003;61460;41.158;-73.238;2023-02-20T09:32:54;19;19;
73246;PMS5003;61460;41.158;-73.238;2023-02-20T09:35:26;20;20;
73246;PMS5003;61460;41.158;-73.238;2023-02-20T09:37:57;21;21;
73246;PMS5003;61460;41.158;-73.238;2023-02-20T09:40:27;18;18;
73246;PMS5003;61460;41.158;-73.238;2023-02-20T09:43:03;19;19;
73246;PMS5003;61460;41.158;-73.238;2023-02-20T09:45:30;17;17;
73246;PMS5003;61460;41.158;-73.238;2023-02-20T09:48:02;21;21;
73246;PMS5003;61460;41.158;-73.238;2023-02-20T09:50:30;24;19;
73246;PMS5003;61460;41.158;-73.238;2023-02-20T09:53:00;21;20;
73246;PMS5003;61460;41.158;-73.238;2023-02-20T09:55:32;20;19;
73246;PMS5003;61460;41.158;-73.238;2023-02-20T09:58:00;20;20;
73246;PMS5003;61460;41.158;-73.238;2023-02-20T10:00:31;16;16;
73246;PMS5003;61460;41.158;-73.238;2023-02-20T10:03:05;19;19;
73246;PMS5003;61460;41.158;-73.238;2023-02-20T10:05:32;19;19;
73246;PMS5003;61460;41.158;-73.238;2023-02-20T10:08:04;18;17;
73246;PMS5003;61460;41.158;-73.238;2023-02-20T10:10:33;20;19;
73246;PMS5003;61460;41.158;-73.238;2023-02-20T10:13:06;18;18;
73246;PMS5003;61460;41.158;-73.238;2023-02-20T10:15:37;22;22;
73246;PMS5003;61460;41.158;-73.238;2023-02-20T10:18:09;18;18;
73246;PMS5003;61460;41.158;-73.238;2023-02-20T10:20:37;18;17;
73246;PMS5003;61460;41.158;-73.238;2023-02-20T10:23:09;20;19;
73246;PMS5003;61460;41.158;-73.238;2023-02-20T10:25:39;17;17;
73246;PMS5003;61460;41.158;-73.238;2023-02-20T10:28:09;18;17;
73246;PMS5003;61460;41.158;-73.238;2023-02-20T10:30:40;16;16;
73246;PMS5003;61460;41.158;-73.238;2023-02-20T10:33:14;20;19;
73246;PMS5003;61460;41.158;-73.238;2023-02-20T10:35:41;16;16;
73246;PMS5003;61460;41.158;-73.238;2023-02-20T10:38:11;17;17;
73246;PMS5003;61460;41.158;-73.238;2023-02-20T10:40:42;19;18;
73246;PMS5003;61460;41.158;-73.238;2023-02-20T10:43:15;16;16;
73246;PMS5003;61460;41.158;-73.238;2023-02-20T10:45:45;16;16;
73246;PMS5003;61460;41.158;-73.238;2023-02-20T10:48:13;15;15;
73246;PMS5003;61460;41.158;-73.238;2023-02-20T10:50:45;18;17;
73246;PMS5003;61460;41.158;-73.238;2023-02-20T10:53:17;17;16;
73246;PMS5003;61460;41.158;-73.238;2023-02-20T10:55:47;16;15;
73246;PMS5003;61460;41.158;-73.238;2023-02-20T10:58:18;16;16;
73246;PMS5003;61460;41.158;-73.238;2023-02-20T11:00:48;16;16;
73246;PMS5003;61460;41.158;-73.238;2023-02-20T11:03:18;17;15;
73246;PMS5003;61460;41.158;-73.238;2023-02-20T11:05:48;17;17;
73246;PMS5003;61460;41.158;-73.238;2023-02-20T11:08:18;14;14;
73246;PMS5003;61460;41.158;-73.238;2023-02-20T11:10:51;16;15;
73246;PMS5003;61460;41.158;-73.238;2023-02-20T11:13:21;16;14;
73246;PMS5003;61460;41.158;-73.238;2023-02-20T11:15:52;16;16;
73246;PMS5003;61460;41.158;-73.238;2023-02-20T11:18:23;15;15;
73246;PMS5003;61460;41.158;-73.238;2023-02-20T11:20:52;15;14;
73246;PMS5003;61460;41.158;-73.238;2023-02-20T11:25:53;15;14;
73246;PMS5003;61460;41.158;-73.238;2023-02-20T11:28:25;13;13;
73246;PMS5003;61460;41.158;-73.238;2023-02-20T11:30:57;16;15;
73246;PMS5003;61460;41.158;-73.238;2023-02-20T11:33:25;13;12;
73246;PMS5003;61460;41.158;-73.238;2023-02-20T11:35:56;14;13;
73246;PMS5003;61460;41.158;-73.238;2023-02-20T11:38:29;16;15;
73246;PMS5003;61460;41.158;-73.238;2023-02-20T11:41:05;13;13;
73246;PMS5003;61460;41.158;-73.238;2023-02-20T11:43:29;14;14;
73246;PMS5003;61460;41.158;-73.238;2023-02-20T11:48:29;14;14;
73246;PMS5003;61460;41.158;-73.238;2023-02-20T11:51:00;13;13;
73246;PMS5003;61460;41.158;-73.238;2023-02-20T11:53:31;14;14;
73246;PMS5003;61460;41.158;-73.238;2023-02-20T11:58:32;15;13;
73246;PMS5003;61460;41.158;-73.238;2023-02-20T12:01:02;10;10;
73246;PMS5003;61460;41.158;-73.238;2023-02-20T12:03:33;12;12;
73246;PMS5003;61460;41.158;-73.238;2023-02-20T12:08:41;14;12;
73246;PMS5003;61460;41.158;-73.238;2023-02-20T12:11:06;11;11;
73246;PMS5003;61460;41.158;-73.238;2023-02-20T12:13:37;11;11;
73246;PMS5003;61460;41.158;-73.238;2023-02-20T12:16:12;12;12;
73246;PMS5003;61460;41.158;-73.238;2023-02-20T12:18:41;17;12;
73246;PMS5003;61460;41.158;-73.238;2023-02-20T12:21:12;13;13;
73246;PMS5003;61460;41.158;-73.238;2023-02-20T12:23:40;16;13;
73246;PMS5003;61460;41.158;-73.238;2023-02-20T12:26:12;12;11;
73246;PMS5003;61460;41.158;-73.238;2023-02-20T12:28:40;12;11;
73246;PMS5003;61460;41.158;-73.238;2023-02-20T12:31:15;12;12;
73246;PMS5003;61460;41.158;-73.238;2023-02-20T12:33:44;13;12;
73246;PMS5003;61460;41.158;-73.238;2023-02-20T12:36:16;12;12;
73246;PMS5003;61460;41.158;-73.238;2023-02-20T12:38:43;17;16;
73246;PMS5003;61460;41.158;-73.238;2023-02-20T12:43:45;14;13;
73246;PMS5003;61460;41.158;-73.238;2023-02-20T12:46:15;14;13;
73246;PMS5003;61460;41.158;-73.238;2023-02-20T12:48:48;13;12;
73246;PMS5003;61460;41.158;-73.238;2023-02-20T12:51:18;14;13;
73246;PMS5003;61460;41.158;-73.238;2023-02-20T12:53:50;13;13;
73246;PMS5003;61460;41.158;-73.238;2023-02-20T12:56:21;14;14;
73246;PMS5003;61460;41.158;-73.238;2023-02-20T12:58:48;13;12;
73246;PMS5003;61460;41.158;-73.238;2023-02-20T13:01:18;13;12;
73246;PMS5003;61460;41.158;-73.238;2023-02-20T13:03:51;13;12;
73246;PMS5003;61460;41.158;-73.238;2023-02-20T13:06:23;12;12;
73246;PMS5003;61460;41.158;-73.238;2023-02-20T13:08:54;12;12;
73246;PMS5003;61460;41.158;-73.238;2023-02-20T13:11:21;16;16;
73246;PMS5003;61460;41.158;-73.238;2023-02-20T13:13:55;16;13;
73246;PMS5003;61460;41.158;-73.238;2023-02-20T13:16:21;12;12;
73246;PMS5003;61460;41.158;-73.238;2023-02-20T13:18:53;16;15;
73246;PMS5003;61460;41.158;-73.238;2023-02-20T13:21:23;14;13;
73246;PMS5003;61460;41.158;-73.238;2023-02-20T13:23:53;13;13;
73246;PMS5003;61460;41.158;-73.238;2023-02-20T13:28:54;15;15;
73246;PMS5003;61460;41.158;-73.238;2023-02-20T13:41:29;16;14;
73246;PMS5003;61460;41.158;-73.238;2023-02-20T13:46:28;17;15;
73246;PMS5003;61460;41.158;-73.238;2023-02-20T13:48:59;15;15;
73246;PMS5003;61460;41.158;-73.238;2023-02-20T13:51:30;16;16;
73246;PMS5003;61460;41.158;-73.238;2023-02-20T13:54:09;16;15;
73246;PMS5003;61460;41.158;-73.238;2023-02-20T13:56:41;18;17;
73246;PMS5003;61460;41.158;-73.238;2023-02-20T13:59:01;18;17;
73246;PMS5003;61460;41.158;-73.238;2023-02-20T14:04:03;16;16;
73246;PMS5003;61460;41.158;-73.238;2023-02-20T14:06:33;18;18;
73246;PMS5003;61460;41.158;-73.238;2023-02-20T14:16:37;19;17;
73246;PMS5003;61460;41.158;-73.238;2023-02-20T14:19:12;21;21;
73246;PMS5003;61460;41.158;-73.238;2023-02-20T14:21:38;19;19;
73246;PMS5003;61460;41.158;-73.238;2023-02-20T14:24:15;19;18;
73246;PMS5003;61460;41.158;-73.238;2023-02-20T14:26:38;18;17;
73246;PMS5003;61460;41.158;-73.238;2023-02-20T14:31:40;19;18;
73246;PMS5003;61460;41.158;-73.238;2023-02-20T14:34:12;20;18;
73246;PMS5003;61460;41.158;-73.238;2023-02-20T14:36:44;18;17;
73246;PMS5003;61460;41.158;-73.238;2023-02-20T14:39:16;18;17;
73246;PMS5003;61460;41.158;-73.238;2023-02-20T14:44:13;17;17;
73246;PMS5003;61460;41.158;-73.238;2023-02-20T14:46:43;17;17;
73246;PMS5003;61460;41.158;-73.238;2023-02-20T14:49:15;15;15;
73246;PMS5003;61460;41.158;-73.238;2023-02-20T14:51:45;15;15;
73246;PMS5003;61460;41.158;-73.238;2023-02-20T14:54:17;15;15;
73246;PMS5003;61460;41.158;-73.238;2023-02-20T14:56:46;15;15;
73246;PMS5003;61460;41.158;-73.238;2023-02-20T14:59:22;16;16;
73246;PMS5003;61460;41.158;-73.238;2023-02-20T15:01:47;15;14;
73246;PMS5003;61460;41.158;-73.238;2023-02-20T15:04:18;20;14;
73246;PMS5003;61460;41.158;-73.238;2023-02-20T15:06:48;15;15;
73246;PMS5003;61460;41.158;-73.238;2023-02-20T15:09:19;14;14;
73246;PMS5003;61460;41.158;-73.238;2023-02-20T15:11:50;14;14;
73246;PMS5003;61460;41.158;-73.238;2023-02-20T15:14:22;15;15;
73246;PMS5003;61460;41.158;-73.238;2023-02-20T15:21:56;17;16;
73246;PMS5003;61460;41.158;-73.238;2023-02-20T15:24:29;21;21;
73246;PMS5003;61460;41.158;-73.238;2023-02-20T15:26:54;30;29;
73246;PMS5003;61460;41.158;-73.238;2023-02-20T15:29:25;46;42;
73246;PMS5003;61460;41.158;-73.238;2023-02-20T15:31:56;56;47;
73246;PMS5003;61460;41.158;-73.238;2023-02-20T15:34:27;66;57;
73246;PMS5003;61460;41.158;-73.238;2023-02-20T15:36:56;68;61;
73246;PMS5003;61460;41.158;-73.238;2023-02-20T15:39:26;78;70;
73246;PMS5003;61460;41.158;-73.238;2023-02-20T15:41:56;80;67;
73246;PMS5003;61460;41.158;-73.238;2023-02-20T15:44:26;74;60;
73246;PMS5003;61460;41.158;-73.238;2023-02-20T15:46:58;73;69;
73246;PMS5003;61460;41.158;-73.238;2023-02-20T15:49:27;73;59;
73246;PMS5003;61460;41.158;-73.238;2023-02-20T15:51:58;76;59;
73246;PMS5003;61460;41.158;-73.238;2023-02-20T15:54:28;64;59;
73246;PMS5003;61460;41.158;-73.238;2023-02-20T15:56:58;68;60;
73246;PMS5003;61460;41.158;-73.238;2023-02-20T15:59:29;70;61;
73246;PMS5003;61460;41.158;-73.238;2023-02-20T16:01:59;56;52;
73246;PMS5003;61460;41.158;-73.238;2023-02-20T16:04:29;61;50;
73246;PMS5003;61460;41.158;-73.238;2023-02-20T16:07:00;54;48;
73246;PMS5003;61460;41.158;-73.238;2023-02-20T16:09:31;44;38;
73246;PMS5003;61460;41.158;-73.238;2023-02-20T16:12:01;48;45;
73246;PMS5003;61460;41.158;-73.238;2023-02-20T16:14:31;47;38;
73246;PMS5003;61460;41.158;-73.238;2023-02-20T16:17:02;39;36;
73246;PMS5003;61460;41.158;-73.238;2023-02-20T16:19:32;34;32;
73246;PMS5003;61460;41.158;-73.238;2023-02-20T16:22:02;33;32;
73246;PMS5003;61460;41.158;-73.238;2023-02-20T16:24:33;37;31;
73246;PMS5003;61460;41.158;-73.238;2023-02-20T16:27:03;37;31;
73246;PMS5003;61460;41.158;-73.238;2023-02-20T16:29:34;37;28;
73246;PMS5003;61460;41.158;-73.238;2023-02-20T16:34:35;27;26;
73246;PMS5003;61460;41.158;-73.238;2023-02-20T16:37:07;26;25;
73246;PMS5003;61460;41.158;-73.238;2023-02-20T16:39:35;30;23;
73246;PMS5003;61460;41.158;-73.238;2023-02-20T16:44:36;32;24;
73246;PMS5003;61460;41.158;-73.238;2023-02-20T16:47:07;32;23;
73246;PMS5003;61460;41.158;-73.238;2023-02-20T16:49:38;20;20;
73246;PMS5003;61460;41.158;-73.238;2023-02-20T16:52:11;19;19;
73246;PMS5003;61460;41.158;-73.238;2023-02-20T16:54:38;18;17;
73246;PMS5003;61460;41.158;-73.238;2023-02-20T16:57:09;20;17;
73246;PMS5003;61460;41.158;-73.238;2023-02-20T16:59:40;18;17;
73246;PMS5003;61460;41.158;-73.238;2023-02-20T17:02:13;19;14;
73246;PMS5003;61460;41.158;-73.238;2023-02-20T17:04:41;17;17;
73246;PMS5003;61460;41.158;-73.238;2023-02-20T17:07:11;15;15;
73246;PMS5003;61460;41.158;-73.238;2023-02-20T17:09:42;15;15;
73246;PMS5003;61460;41.158;-73.238;2023-02-20T17:12:13;18;16;
73246;PMS5003;61460;41.158;-73.238;2023-02-20T17:14:43;14;14;
73246;PMS5003;61460;41.158;-73.238;2023-02-20T17:17:14;15;14;